PSD weather

Port Said Airport
Port Said, Sharqia Governorate, Egypt

Public forecast

Using degrees Celsius for public forecast. Weather courtesy of forecast.io.

Current aviation weather report (METAR) for Port Said Airport

Retrieved 2019/10/14 21:00 UTC (1 hour ago):

HEPS 142100Z 24005KT CAVOK 26/23 Q1014 NOSIG

Aviation forecast (TAF) for Port Said Airport

Retrieved 2019/10/14 18:54 UTC (3 hours ago):

TAF HEPS 141700Z 1418/1524 01009KT 9999 SCT025 TEMPO 1500/1506 VRB03KT 3000BR NSC